Ridge, New York
Current Conditions -  °F | °C
As of 11:56 PM on Sunday 21 Dec 2014 (Local Time) from KHWV Reporting Station
Overcast Overcast  
Wind Chill: 32°   Ceiling: 1800
Heat Index: 37°   Visibility: 9mi
Dew Point: 34°   Wind: 7mph
Humidity: 89%   Direction: 10°N
Pressure: 30.32"   Gusts: NA
Location:  40.89°N, 72.89°W
Report Text: KHWV 220456Z AUTO 01006KT 9SM FEW009 OVC018 03/01 A3032 RMK AO2 SLP267 T00280011 400280006 TSNO
Loading
Personal Weather Stations






























Interactive Weather Map New forecast layout! Learn more

10-Day Weather Forecast

Advertisements
Track Severe Weather on mobile